sensor_id;sensor_type;location;lat;lon;timestamp;temperature;humidity
38325;DHT22;24126;52.672;13.622;2022-12-29T00:00:03;11.90;78.30
38325;DHT22;24126;52.672;13.622;2022-12-29T00:02:38;11.90;78.30
38325;DHT22;24126;52.672;13.622;2022-12-29T00:05:06;11.90;78.30
38325;DHT22;24126;52.672;13.622;2022-12-29T00:07:34;12.00;78.20
38325;DHT22;24126;52.672;13.622;2022-12-29T00:10:02;12.00;78.20
38325;DHT22;24126;52.672;13.622;2022-12-29T00:12:29;12.00;78.20
38325;DHT22;24126;52.672;13.622;2022-12-29T00:15:16;12.00;78.10
38325;DHT22;24126;52.672;13.622;2022-12-29T00:18:08;12.00;78.00
38325;DHT22;24126;52.672;13.622;2022-12-29T00:20:36;12.00;77.90
38325;DHT22;24126;52.672;13.622;2022-12-29T00:23:20;12.00;78.10
38325;DHT22;24126;52.672;13.622;2022-12-29T00:26:09;12.00;77.80
38325;DHT22;24126;52.672;13.622;2022-12-29T00:28:56;12.10;77.80
38325;DHT22;24126;52.672;13.622;2022-12-29T00:31:41;12.10;77.70
38325;DHT22;24126;52.672;13.622;2022-12-29T00:34:26;12.10;77.50
38325;DHT22;24126;52.672;13.622;2022-12-29T00:37:11;12.10;77.50
38325;DHT22;24126;52.672;13.622;2022-12-29T00:39:38;12.10;77.50
38325;DHT22;24126;52.672;13.622;2022-12-29T00:45:28;12.10;77.40
38325;DHT22;24126;52.672;13.622;2022-12-29T00:47:55;12.20;77.50
38325;DHT22;24126;52.672;13.622;2022-12-29T00:50:23;12.10;77.50
38325;DHT22;24126;52.672;13.622;2022-12-29T00:52:49;12.20;77.70
38325;DHT22;24126;52.672;13.622;2022-12-29T00:55:16;12.20;77.80
38325;DHT22;24126;52.672;13.622;2022-12-29T00:57:44;12.20;77.70
38325;DHT22;24126;52.672;13.622;2022-12-29T01:00:12;12.20;77.60
38325;DHT22;24126;52.672;13.622;2022-12-29T01:02:39;12.10;77.70
38325;DHT22;24126;52.672;13.622;2022-12-29T01:05:06;12.10;77.70
38325;DHT22;24126;52.672;13.622;2022-12-29T01:07:34;12.10;77.70
38325;DHT22;24126;52.672;13.622;2022-12-29T01:10:01;12.20;77.70
38325;DHT22;24126;52.672;13.622;2022-12-29T01:12:37;12.20;77.80
38325;DHT22;24126;52.672;13.622;2022-12-29T01:15:12;12.20;77.90
38325;DHT22;24126;52.672;13.622;2022-12-29T01:17:40;12.20;77.70
38325;DHT22;24126;52.672;13.622;2022-12-29T01:20:08;12.20;77.70
38325;DHT22;24126;52.672;13.622;2022-12-29T01:22:35;12.20;77.70
38325;DHT22;24126;52.672;13.622;2022-12-29T01:25:03;12.20;77.60
38325;DHT22;24126;52.672;13.622;2022-12-29T01:27:30;12.10;77.60
38325;DHT22;24126;52.672;13.622;2022-12-29T01:29:57;12.20;77.60
38325;DHT22;24126;52.672;13.622;2022-12-29T01:32:24;12.20;77.60
38325;DHT22;24126;52.672;13.622;2022-12-29T01:34:52;12.20;77.60
38325;DHT22;24126;52.672;13.622;2022-12-29T01:37:19;12.20;77.60
38325;DHT22;24126;52.672;13.622;2022-12-29T01:39:47;12.20;77.60
38325;DHT22;24126;52.672;13.622;2022-12-29T01:42:16;12.20;77.50
38325;DHT22;24126;52.672;13.622;2022-12-29T01:44:55;12.20;77.60
38325;DHT22;24126;52.672;13.622;2022-12-29T01:49:51;12.20;77.70
38325;DHT22;24126;52.672;13.622;2022-12-29T01:52:19;12.20;77.70
38325;DHT22;24126;52.672;13.622;2022-12-29T01:54:48;12.20;77.70
38325;DHT22;24126;52.672;13.622;2022-12-29T01:57:16;12.20;77.80
38325;DHT22;24126;52.672;13.622;2022-12-29T01:59:55;12.20;77.80
38325;DHT22;24126;52.672;13.622;2022-12-29T02:02:23;12.20;77.90
38325;DHT22;24126;52.672;13.622;2022-12-29T02:07:44;12.20;77.90
38325;DHT22;24126;52.672;13.622;2022-12-29T02:10:12;12.20;77.90
38325;DHT22;24126;52.672;13.622;2022-12-29T02:12:40;12.20;77.90
38325;DHT22;24126;52.672;13.622;2022-12-29T02:15:08;12.20;77.90
38325;DHT22;24126;52.672;13.622;2022-12-29T02:20:34;12.20;77.90
38325;DHT22;24126;52.672;13.622;2022-12-29T02:31:26;12.20;78.20
38325;DHT22;24126;52.672;13.622;2022-12-29T02:41:58;12.20;78.20
38325;DHT22;24126;52.672;13.622;2022-12-29T02:52:47;12.30;77.70
38325;DHT22;24126;52.672;13.622;2022-12-29T02:55:16;12.20;77.80
38325;DHT22;24126;52.672;13.622;2022-12-29T02:57:42;12.20;77.60
38325;DHT22;24126;52.672;13.622;2022-12-29T03:00:12;12.20;77.70
38325;DHT22;24126;52.672;13.622;2022-12-29T03:07:47;12.30;77.50
38325;DHT22;24126;52.672;13.622;2022-12-29T03:11:05;12.30;77.50
38325;DHT22;24126;52.672;13.622;2022-12-29T03:13:28;12.30;77.40
38325;DHT22;24126;52.672;13.622;2022-12-29T03:18:41;12.30;77.20
38325;DHT22;24126;52.672;13.622;2022-12-29T03:23:43;12.30;77.00
38325;DHT22;24126;52.672;13.622;2022-12-29T03:26:13;12.40;77.00
38325;DHT22;24126;52.672;13.622;2022-12-29T03:28:44;12.40;76.80
38325;DHT22;24126;52.672;13.622;2022-12-29T03:31:17;12.40;76.70
38325;DHT22;24126;52.672;13.622;2022-12-29T03:33:47;12.40;76.70
38325;DHT22;24126;52.672;13.622;2022-12-29T03:36:23;12.40;76.60
38325;DHT22;24126;52.672;13.622;2022-12-29T03:38:59;12.40;76.50
38325;DHT22;24126;52.672;13.622;2022-12-29T03:41:30;12.40;76.50
38325;DHT22;24126;52.672;13.622;2022-12-29T03:44:05;12.40;76.50
38325;DHT22;24126;52.672;13.622;2022-12-29T03:46:33;12.50;76.50
38325;DHT22;24126;52.672;13.622;2022-12-29T03:49:01;12.50;76.30
38325;DHT22;24126;52.672;13.622;2022-12-29T03:51:28;12.50;76.20
38325;DHT22;24126;52.672;13.622;2022-12-29T03:53:56;12.50;76.20
38325;DHT22;24126;52.672;13.622;2022-12-29T03:56:24;12.50;76.10
38325;DHT22;24126;52.672;13.622;2022-12-29T03:58:52;12.50;76.10
38325;DHT22;24126;52.672;13.622;2022-12-29T04:01:31;12.60;76.00
38325;DHT22;24126;52.672;13.622;2022-12-29T04:03:58;12.60;75.90
38325;DHT22;24126;52.672;13.622;2022-12-29T04:06:25;12.60;75.90
38325;DHT22;24126;52.672;13.622;2022-12-29T04:09:02;12.60;76.00
38325;DHT22;24126;52.672;13.622;2022-12-29T04:11:33;12.60;75.90
38325;DHT22;24126;52.672;13.622;2022-12-29T04:14:03;12.60;75.80
38325;DHT22;24126;52.672;13.622;2022-12-29T04:16:32;12.60;75.80
38325;DHT22;24126;52.672;13.622;2022-12-29T04:19:02;12.60;75.80
38325;DHT22;24126;52.672;13.622;2022-12-29T04:21:29;12.70;75.80
38325;DHT22;24126;52.672;13.622;2022-12-29T04:23:58;12.70;75.70
38325;DHT22;24126;52.672;13.622;2022-12-29T04:26:25;12.70;75.70
38325;DHT22;24126;52.672;13.622;2022-12-29T04:28:59;12.70;75.60
38325;DHT22;24126;52.672;13.622;2022-12-29T04:31:44;12.70;75.60
38325;DHT22;24126;52.672;13.622;2022-12-29T04:34:12;12.80;75.50
38325;DHT22;24126;52.672;13.622;2022-12-29T04:36:39;12.80;75.40
38325;DHT22;24126;52.672;13.622;2022-12-29T04:39:07;12.80;75.40
38325;DHT22;24126;52.672;13.622;2022-12-29T04:41:35;12.80;75.40
38325;DHT22;24126;52.672;13.622;2022-12-29T04:44:03;12.80;75.20
38325;DHT22;24126;52.672;13.622;2022-12-29T04:46:50;12.80;75.20
38325;DHT22;24126;52.672;13.622;2022-12-29T04:49:38;12.90;75.20
38325;DHT22;24126;52.672;13.622;2022-12-29T04:52:27;12.90;75.10
38325;DHT22;24126;52.672;13.622;2022-12-29T04:54:55;12.90;74.90
38325;DHT22;24126;52.672;13.622;2022-12-29T04:57:22;12.90;74.90
38325;DHT22;24126;52.672;13.622;2022-12-29T04:59:54;13.00;74.80
38325;DHT22;24126;52.672;13.622;2022-12-29T05:02:22;12.90;74.70
38325;DHT22;24126;52.672;13.622;2022-12-29T05:04:50;13.00;74.80
38325;DHT22;24126;52.672;13.622;2022-12-29T05:07:18;13.00;74.60
38325;DHT22;24126;52.672;13.622;2022-12-29T05:09:47;12.90;74.60
38325;DHT22;24126;52.672;13.622;2022-12-29T05:12:15;13.00;74.70
38325;DHT22;24126;52.672;13.622;2022-12-29T05:17:24;13.00;74.50
38325;DHT22;24126;52.672;13.622;2022-12-29T05:19:52;13.00;74.50
38325;DHT22;24126;52.672;13.622;2022-12-29T05:22:19;13.00;74.50
38325;DHT22;24126;52.672;13.622;2022-12-29T05:24:46;13.00;74.50
38325;DHT22;24126;52.672;13.622;2022-12-29T05:27:14;13.00;74.60
38325;DHT22;24126;52.672;13.622;2022-12-29T05:30:00;13.00;74.50
38325;DHT22;24126;52.672;13.622;2022-12-29T05:32:27;13.00;74.50
38325;DHT22;24126;52.672;13.622;2022-12-29T05:34:55;13.00;74.60
38325;DHT22;24126;52.672;13.622;2022-12-29T05:37:23;12.90;74.60
38325;DHT22;24126;52.672;13.622;2022-12-29T05:39:50;13.00;74.60
38325;DHT22;24126;52.672;13.622;2022-12-29T05:42:19;13.00;74.60
38325;DHT22;24126;52.672;13.622;2022-12-29T05:45:06;13.00;74.60
38325;DHT22;24126;52.672;13.622;2022-12-29T05:48:06;13.00;74.70
38325;DHT22;24126;52.672;13.622;2022-12-29T05:50:47;13.00;74.70
38325;DHT22;24126;52.672;13.622;2022-12-29T05:53:16;13.00;74.70
38325;DHT22;24126;52.672;13.622;2022-12-29T05:55:45;13.00;74.70
38325;DHT22;24126;52.672;13.622;2022-12-29T05:58:14;13.00;74.80
38325;DHT22;24126;52.672;13.622;2022-12-29T06:00:41;13.00;74.80
38325;DHT22;24126;52.672;13.622;2022-12-29T06:03:09;13.10;74.90
38325;DHT22;24126;52.672;13.622;2022-12-29T06:05:36;13.10;74.90
38325;DHT22;24126;52.672;13.622;2022-12-29T06:08:04;13.10;74.90
38325;DHT22;24126;52.672;13.622;2022-12-29T06:10:31;13.10;75.00
38325;DHT22;24126;52.672;13.622;2022-12-29T06:13:06;13.10;75.00
38325;DHT22;24126;52.672;13.622;2022-12-29T06:15:36;13.10;75.10
38325;DHT22;24126;52.672;13.622;2022-12-29T06:18:09;13.10;75.10
38325;DHT22;24126;52.672;13.622;2022-12-29T06:20:36;13.20;75.20
38325;DHT22;24126;52.672;13.622;2022-12-29T06:23:05;13.20;75.10
38325;DHT22;24126;52.672;13.622;2022-12-29T06:25:32;13.20;75.10
38325;DHT22;24126;52.672;13.622;2022-12-29T06:28:02;13.30;75.10
38325;DHT22;24126;52.672;13.622;2022-12-29T06:30:29;13.30;75.20
38325;DHT22;24126;52.672;13.622;2022-12-29T06:32:58;13.30;75.10
38325;DHT22;24126;52.672;13.622;2022-12-29T06:35:25;13.30;75.10
38325;DHT22;24126;52.672;13.622;2022-12-29T06:37:53;13.30;75.00
38325;DHT22;24126;52.672;13.622;2022-12-29T06:40:20;13.40;75.10
38325;DHT22;24126;52.672;13.622;2022-12-29T06:43:06;13.40;75.10
38325;DHT22;24126;52.672;13.622;2022-12-29T06:45:53;13.40;75.00
38325;DHT22;24126;52.672;13.622;2022-12-29T06:48:20;13.40;75.00
38325;DHT22;24126;52.672;13.622;2022-12-29T06:50:47;13.40;75.00
38325;DHT22;24126;52.672;13.622;2022-12-29T06:53:14;13.50;75.00
38325;DHT22;24126;52.672;13.622;2022-12-29T06:55:41;13.50;75.00
38325;DHT22;24126;52.672;13.622;2022-12-29T06:58:08;13.50;75.00
38325;DHT22;24126;52.672;13.622;2022-12-29T07:00:36;13.50;74.90
38325;DHT22;24126;52.672;13.622;2022-12-29T07:03:03;13.60;74.90
38325;DHT22;24126;52.672;13.622;2022-12-29T07:05:30;13.50;74.90
38325;DHT22;24126;52.672;13.622;2022-12-29T07:07:58;13.60;75.00
38325;DHT22;24126;52.672;13.622;2022-12-29T07:10:25;13.60;74.90
38325;DHT22;24126;52.672;13.622;2022-12-29T07:12:53;13.60;74.80
38325;DHT22;24126;52.672;13.622;2022-12-29T07:15:21;13.60;74.80
38325;DHT22;24126;52.672;13.622;2022-12-29T07:17:48;13.60;74.70
38325;DHT22;24126;52.672;13.622;2022-12-29T07:20:16;13.60;74.60
38325;DHT22;24126;52.672;13.622;2022-12-29T07:22:43;13.60;74.60
38325;DHT22;24126;52.672;13.622;2022-12-29T07:25:10;13.60;74.60
38325;DHT22;24126;52.672;13.622;2022-12-29T07:27:37;13.60;74.50
38325;DHT22;24126;52.672;13.622;2022-12-29T07:30:05;13.60;74.50
38325;DHT22;24126;52.672;13.622;2022-12-29T07:32:33;13.60;74.40
38325;DHT22;24126;52.672;13.622;2022-12-29T07:35:00;13.60;74.60
38325;DHT22;24126;52.672;13.622;2022-12-29T07:37:28;13.60;74.60
38325;DHT22;24126;52.672;13.622;2022-12-29T07:39:57;13.60;74.60
38325;DHT22;24126;52.672;13.622;2022-12-29T07:42:24;13.60;74.70
38325;DHT22;24126;52.672;13.622;2022-12-29T07:44:52;13.60;74.80
38325;DHT22;24126;52.672;13.622;2022-12-29T07:47:49;13.60;74.80
38325;DHT22;24126;52.672;13.622;2022-12-29T07:53:27;13.60;74.70
38325;DHT22;24126;52.672;13.622;2022-12-29T07:55:55;13.70;74.60
38325;DHT22;24126;52.672;13.622;2022-12-29T07:58:22;13.70;74.60
38325;DHT22;24126;52.672;13.622;2022-12-29T08:00:53;13.70;74.60
38325;DHT22;24126;52.672;13.622;2022-12-29T08:03:21;13.70;74.60
38325;DHT22;24126;52.672;13.622;2022-12-29T08:05:48;13.80;74.60
38325;DHT22;24126;52.672;13.622;2022-12-29T08:08:16;13.80;74.60
38325;DHT22;24126;52.672;13.622;2022-12-29T08:10:43;13.90;74.60
38325;DHT22;24126;52.672;13.622;2022-12-29T08:13:12;14.00;74.50
38325;DHT22;24126;52.672;13.622;2022-12-29T08:15:40;14.00;74.40
38325;DHT22;24126;52.672;13.622;2022-12-29T08:18:07;14.10;74.30
38325;DHT22;24126;52.672;13.622;2022-12-29T08:20:34;14.10;74.30
38325;DHT22;24126;52.672;13.622;2022-12-29T08:23:01;14.10;74.30
38325;DHT22;24126;52.672;13.622;2022-12-29T08:25:28;14.10;74.20
38325;DHT22;24126;52.672;13.622;2022-12-29T08:27:55;14.20;74.30
38325;DHT22;24126;52.672;13.622;2022-12-29T08:30:22;14.20;74.20
38325;DHT22;24126;52.672;13.622;2022-12-29T08:32:50;14.20;74.30
38325;DHT22;24126;52.672;13.622;2022-12-29T08:35:17;14.20;74.30
38325;DHT22;24126;52.672;13.622;2022-12-29T08:37:44;14.20;74.10
38325;DHT22;24126;52.672;13.622;2022-12-29T08:40:12;14.20;74.10
38325;DHT22;24126;52.672;13.622;2022-12-29T08:42:40;14.20;74.10
38325;DHT22;24126;52.672;13.622;2022-12-29T08:45:08;14.20;74.10
38325;DHT22;24126;52.672;13.622;2022-12-29T08:47:35;14.20;74.00
38325;DHT22;24126;52.672;13.622;2022-12-29T08:50:02;14.20;74.00
38325;DHT22;24126;52.672;13.622;2022-12-29T08:52:29;14.20;74.00
38325;DHT22;24126;52.672;13.622;2022-12-29T08:54:57;14.20;73.90
38325;DHT22;24126;52.672;13.622;2022-12-29T08:57:24;14.20;73.90
38325;DHT22;24126;52.672;13.622;2022-12-29T09:00:03;14.20;73.90
38325;DHT22;24126;52.672;13.622;2022-12-29T09:02:30;14.30;73.80
38325;DHT22;24126;52.672;13.622;2022-12-29T09:04:57;14.30;73.80
38325;DHT22;24126;52.672;13.622;2022-12-29T09:07:25;14.60;74.50
38325;DHT22;24126;52.672;13.622;2022-12-29T09:09:53;15.20;73.00
38325;DHT22;24126;52.672;13.622;2022-12-29T09:12:20;16.00;71.70
38325;DHT22;24126;52.672;13.622;2022-12-29T09:14:47;17.20;69.00
38325;DHT22;24126;52.672;13.622;2022-12-29T09:17:14;18.70;65.50
38325;DHT22;24126;52.672;13.622;2022-12-29T09:19:59;20.30;61.40
38325;DHT22;24126;52.672;13.622;2022-12-29T09:22:26;21.80;56.90
38325;DHT22;24126;52.672;13.622;2022-12-29T09:24:53;23.00;53.00
38325;DHT22;24126;52.672;13.622;2022-12-29T09:27:20;23.90;50.40
38325;DHT22;24126;52.672;13.622;2022-12-29T09:29:48;24.50;48.50
38325;DHT22;24126;52.672;13.622;2022-12-29T09:32:15;24.90;46.90
38325;DHT22;24126;52.672;13.622;2022-12-29T09:34:42;24.90;45.90
38325;DHT22;24126;52.672;13.622;2022-12-29T09:37:09;24.60;45.60
38325;DHT22;24126;52.672;13.622;2022-12-29T09:39:36;23.70;46.80
38325;DHT22;24126;52.672;13.622;2022-12-29T09:42:13;22.50;49.00
38325;DHT22;24126;52.672;13.622;2022-12-29T09:47:13;20.30;53.80
38325;DHT22;24126;52.672;13.622;2022-12-29T09:49:48;19.60;55.80
38325;DHT22;24126;52.672;13.622;2022-12-29T09:52:25;18.90;57.40
38325;DHT22;24126;52.672;13.622;2022-12-29T09:55:00;18.40;58.80
38325;DHT22;24126;52.672;13.622;2022-12-29T09:59:59;17.70;61.10
38325;DHT22;24126;52.672;13.622;2022-12-29T10:02:40;17.50;62.10
38325;DHT22;24126;52.672;13.622;2022-12-29T10:05:13;17.30;62.80
38325;DHT22;24126;52.672;13.622;2022-12-29T10:07:54;17.10;63.40
38325;DHT22;24126;52.672;13.622;2022-12-29T10:15:29;16.90;64.80
38325;DHT22;24126;52.672;13.622;2022-12-29T10:25:50;16.50;65.80
38325;DHT22;24126;52.672;13.622;2022-12-29T10:28:22;16.40;66.10
38325;DHT22;24126;52.672;13.622;2022-12-29T10:30:50;16.30;66.10
38325;DHT22;24126;52.672;13.622;2022-12-29T10:33:19;16.30;66.30
38325;DHT22;24126;52.672;13.622;2022-12-29T10:35:49;16.30;66.50
38325;DHT22;24126;52.672;13.622;2022-12-29T10:40:52;16.20;67.00
38325;DHT22;24126;52.672;13.622;2022-12-29T10:43:38;16.20;67.20
38325;DHT22;24126;52.672;13.622;2022-12-29T10:46:14;16.20;67.30
38325;DHT22;24126;52.672;13.622;2022-12-29T10:48:42;16.30;67.40
38325;DHT22;24126;52.672;13.622;2022-12-29T10:51:16;16.30;67.30
38325;DHT22;24126;52.672;13.622;2022-12-29T10:53:45;16.30;67.40
38325;DHT22;24126;52.672;13.622;2022-12-29T10:56:19;16.30;67.40
38325;DHT22;24126;52.672;13.622;2022-12-29T10:58:48;16.30;67.50
38325;DHT22;24126;52.672;13.622;2022-12-29T11:01:17;16.30;67.70
38325;DHT22;24126;52.672;13.622;2022-12-29T11:03:46;16.30;67.80
38325;DHT22;24126;52.672;13.622;2022-12-29T11:06:27;16.40;67.80
38325;DHT22;24126;52.672;13.622;2022-12-29T11:08:59;16.40;67.60
38325;DHT22;24126;52.672;13.622;2022-12-29T11:11:33;16.40;67.40
38325;DHT22;24126;52.672;13.622;2022-12-29T11:16:56;16.40;67.50
38325;DHT22;24126;52.672;13.622;2022-12-29T11:19:24;16.40;67.50
38325;DHT22;24126;52.672;13.622;2022-12-29T11:21:52;16.40;67.60
38325;DHT22;24126;52.672;13.622;2022-12-29T11:27:10;16.40;67.80
38325;DHT22;24126;52.672;13.622;2022-12-29T11:29:41;16.40;67.90
38325;DHT22;24126;52.672;13.622;2022-12-29T11:34:39;16.30;67.80
38325;DHT22;24126;52.672;13.622;2022-12-29T11:37:12;16.40;67.80
38325;DHT22;24126;52.672;13.622;2022-12-29T11:39:54;16.30;67.90
38325;DHT22;24126;52.672;13.622;2022-12-29T11:42:23;16.30;68.00
38325;DHT22;24126;52.672;13.622;2022-12-29T11:44:56;16.30;68.00
38325;DHT22;24126;52.672;13.622;2022-12-29T11:47:28;16.30;68.00
38325;DHT22;24126;52.672;13.622;2022-12-29T11:50:00;16.30;68.00
38325;DHT22;24126;52.672;13.622;2022-12-29T11:52:31;16.30;68.20
38325;DHT22;24126;52.672;13.622;2022-12-29T11:55:01;16.30;68.30
38325;DHT22;24126;52.672;13.622;2022-12-29T11:57:29;16.30;68.30
38325;DHT22;24126;52.672;13.622;2022-12-29T12:00:00;16.20;68.50
38325;DHT22;24126;52.672;13.622;2022-12-29T12:02:53;16.30;68.60
38325;DHT22;24126;52.672;13.622;2022-12-29T12:05:28;16.20;68.60
38325;DHT22;24126;52.672;13.622;2022-12-29T12:08:09;16.30;68.80
38325;DHT22;24126;52.672;13.622;2022-12-29T12:10:44;16.20;68.80
38325;DHT22;24126;52.672;13.622;2022-12-29T12:16:04;16.10;69.10
38325;DHT22;24126;52.672;13.622;2022-12-29T12:21:12;16.10;69.60
38325;DHT22;24126;52.672;13.622;2022-12-29T12:24:07;16.00;69.70
38325;DHT22;24126;52.672;13.622;2022-12-29T12:26:42;16.00;69.60
38325;DHT22;24126;52.672;13.622;2022-12-29T12:29:17;15.90;69.80
38325;DHT22;24126;52.672;13.622;2022-12-29T12:34:22;15.90;70.00
38325;DHT22;24126;52.672;13.622;2022-12-29T12:39:56;15.80;70.20
38325;DHT22;24126;52.672;13.622;2022-12-29T12:53:11;15.70;70.50
38325;DHT22;24126;52.672;13.622;2022-12-29T13:01:05;15.60;70.50
38325;DHT22;24126;52.672;13.622;2022-12-29T13:06:34;15.60;70.30
38325;DHT22;24126;52.672;13.622;2022-12-29T13:14:13;15.60;70.00
38325;DHT22;24126;52.672;13.622;2022-12-29T13:16:50;15.60;69.90
38325;DHT22;24126;52.672;13.622;2022-12-29T13:19:41;15.60;69.80
38325;DHT22;24126;52.672;13.622;2022-12-29T13:22:24;15.60;69.90
38325;DHT22;24126;52.672;13.622;2022-12-29T13:38:13;15.50;69.50
38325;DHT22;24126;52.672;13.622;2022-12-29T13:40:44;15.50;69.60
38325;DHT22;24126;52.672;13.622;2022-12-29T13:43:21;15.50;69.80
38325;DHT22;24126;52.672;13.622;2022-12-29T13:45:59;15.40;69.90
38325;DHT22;24126;52.672;13.622;2022-12-29T13:48:36;15.40;70.20
38325;DHT22;24126;52.672;13.622;2022-12-29T13:51:13;15.40;70.40
38325;DHT22;24126;52.672;13.622;2022-12-29T13:59:59;15.40;70.70
38325;DHT22;24126;52.672;13.622;2022-12-29T14:06:02;15.30;70.80
38325;DHT22;24126;52.672;13.622;2022-12-29T14:15:42;15.20;70.90
38325;DHT22;24126;52.672;13.622;2022-12-29T14:18:21;15.20;70.90
38325;DHT22;24126;52.672;13.622;2022-12-29T14:28:30;15.10;71.00
38325;DHT22;24126;52.672;13.622;2022-12-29T14:53:56;14.90;71.90
38325;DHT22;24126;52.672;13.622;2022-12-29T14:56:28;14.80;71.80
38325;DHT22;24126;52.672;13.622;2022-12-29T14:59:10;14.80;72.00
38325;DHT22;24126;52.672;13.622;2022-12-29T15:01:43;14.80;72.10
38325;DHT22;24126;52.672;13.622;2022-12-29T15:11:01;14.70;72.60
38325;DHT22;24126;52.672;13.622;2022-12-29T15:16:31;14.80;72.90
38325;DHT22;24126;52.672;13.622;2022-12-29T15:22:44;14.80;73.00
38325;DHT22;24126;52.672;13.622;2022-12-29T15:25:23;14.80;72.80
38325;DHT22;24126;52.672;13.622;2022-12-29T15:27:52;14.70;72.90
38325;DHT22;24126;52.672;13.622;2022-12-29T15:33:43;14.60;73.60
38325;DHT22;24126;52.672;13.622;2022-12-29T15:36:34;14.50;73.70
38325;DHT22;24126;52.672;13.622;2022-12-29T15:39:29;14.50;73.60
38325;DHT22;24126;52.672;13.622;2022-12-29T15:44:37;14.40;73.70
38325;DHT22;24126;52.672;13.622;2022-12-29T15:47:06;14.30;73.70
38325;DHT22;24126;52.672;13.622;2022-12-29T15:49:36;14.30;73.70
38325;DHT22;24126;52.672;13.622;2022-12-29T15:52:06;14.30;73.40
38325;DHT22;24126;52.672;13.622;2022-12-29T15:54:34;14.20;73.40
38325;DHT22;24126;52.672;13.622;2022-12-29T15:57:01;14.20;73.30
38325;DHT22;24126;52.672;13.622;2022-12-29T15:59:30;14.10;73.20
38325;DHT22;24126;52.672;13.622;2022-12-29T16:01:58;14.10;73.10
38325;DHT22;24126;52.672;13.622;2022-12-29T16:07:02;14.00;73.10
38325;DHT22;24126;52.672;13.622;2022-12-29T16:09:33;13.90;73.00
38325;DHT22;24126;52.672;13.622;2022-12-29T16:15:45;13.80;73.10
38325;DHT22;24126;52.672;13.622;2022-12-29T16:18:26;13.70;73.20
38325;DHT22;24126;52.672;13.622;2022-12-29T16:20:55;13.70;73.40
38325;DHT22;24126;52.672;13.622;2022-12-29T16:23:24;13.70;73.80
38325;DHT22;24126;52.672;13.622;2022-12-29T16:25:51;13.60;74.10
38325;DHT22;24126;52.672;13.622;2022-12-29T16:28:21;13.60;74.30
38325;DHT22;24126;52.672;13.622;2022-12-29T16:31:01;13.70;74.70
38325;DHT22;24126;52.672;13.622;2022-12-29T16:33:39;13.60;75.00
38325;DHT22;24126;52.672;13.622;2022-12-29T16:39:04;13.70;75.40
38325;DHT22;24126;52.672;13.622;2022-12-29T16:41:35;13.70;75.60
38325;DHT22;24126;52.672;13.622;2022-12-29T16:49:37;13.70;75.40
38325;DHT22;24126;52.672;13.622;2022-12-29T16:52:39;13.70;75.30
38325;DHT22;24126;52.672;13.622;2022-12-29T16:54:59;13.70;75.20
38325;DHT22;24126;52.672;13.622;2022-12-29T16:57:31;13.70;75.10
38325;DHT22;24126;52.672;13.622;2022-12-29T17:00:00;13.70;75.00
38325;DHT22;24126;52.672;13.622;2022-12-29T17:02:29;13.70;75.00
38325;DHT22;24126;52.672;13.622;2022-12-29T17:04:58;13.70;75.00
38325;DHT22;24126;52.672;13.622;2022-12-29T17:07:26;13.70;75.10
38325;DHT22;24126;52.672;13.622;2022-12-29T17:09:53;13.70;75.10
38325;DHT22;24126;52.672;13.622;2022-12-29T17:12:24;13.70;75.10
38325;DHT22;24126;52.672;13.622;2022-12-29T17:14:53;13.70;75.10
38325;DHT22;24126;52.672;13.622;2022-12-29T17:17:26;13.70;75.10
38325;DHT22;24126;52.672;13.622;2022-12-29T17:22:44;13.70;75.00
38325;DHT22;24126;52.672;13.622;2022-12-29T17:25:12;13.70;75.00
38325;DHT22;24126;52.672;13.622;2022-12-29T17:27:44;13.60;74.90
38325;DHT22;24126;52.672;13.622;2022-12-29T17:30:14;13.70;75.10
38325;DHT22;24126;52.672;13.622;2022-12-29T17:32:42;13.70;75.00
38325;DHT22;24126;52.672;13.622;2022-12-29T17:35:14;13.70;75.00
38325;DHT22;24126;52.672;13.622;2022-12-29T17:37:43;13.70;74.90
38325;DHT22;24126;52.672;13.622;2022-12-29T17:40:14;13.70;74.70
38325;DHT22;24126;52.672;13.622;2022-12-29T17:42:42;13.80;74.80
38325;DHT22;24126;52.672;13.622;2022-12-29T17:45:17;13.80;74.60
38325;DHT22;24126;52.672;13.622;2022-12-29T17:47:45;13.80;74.50
38325;DHT22;24126;52.672;13.622;2022-12-29T17:50:13;13.80;74.40
38325;DHT22;24126;52.672;13.622;2022-12-29T17:52:41;13.80;74.30
38325;DHT22;24126;52.672;13.622;2022-12-29T17:55:16;13.80;74.20
38325;DHT22;24126;52.672;13.622;2022-12-29T17:57:45;13.80;74.10
38325;DHT22;24126;52.672;13.622;2022-12-29T18:00:13;13.90;74.10
38325;DHT22;24126;52.672;13.622;2022-12-29T18:02:41;13.90;73.80
38325;DHT22;24126;52.672;13.622;2022-12-29T18:05:12;13.90;73.60
38325;DHT22;24126;52.672;13.622;2022-12-29T18:07:41;13.80;73.50
38325;DHT22;24126;52.672;13.622;2022-12-29T18:10:08;13.90;73.40
38325;DHT22;24126;52.672;13.622;2022-12-29T18:12:39;13.90;73.50
38325;DHT22;24126;52.672;13.622;2022-12-29T18:15:15;13.90;73.20
38325;DHT22;24126;52.672;13.622;2022-12-29T18:17:43;13.90;73.20
38325;DHT22;24126;52.672;13.622;2022-12-29T18:20:10;13.90;73.10
38325;DHT22;24126;52.672;13.622;2022-12-29T18:22:37;13.90;73.00
38325;DHT22;24126;52.672;13.622;2022-12-29T18:25:12;14.00;72.90
38325;DHT22;24126;52.672;13.622;2022-12-29T18:27:44;13.90;72.80
38325;DHT22;24126;52.672;13.622;2022-12-29T18:30:11;14.00;72.70
38325;DHT22;24126;52.672;13.622;2022-12-29T18:32:38;14.00;73.40
38325;DHT22;24126;52.672;13.622;2022-12-29T18:35:50;14.00;73.20
38325;DHT22;24126;52.672;13.622;2022-12-29T18:37:56;14.00;72.90
38325;DHT22;24126;52.672;13.622;2022-12-29T18:40:23;14.10;72.70
38325;DHT22;24126;52.672;13.622;2022-12-29T18:42:50;14.00;72.50
38325;DHT22;24126;52.672;13.622;2022-12-29T18:45:21;14.10;72.50
38325;DHT22;24126;52.672;13.622;2022-12-29T18:47:50;14.00;72.50
38325;DHT22;24126;52.672;13.622;2022-12-29T18:50:18;14.00;72.40
38325;DHT22;24126;52.672;13.622;2022-12-29T18:52:45;14.00;72.20
38325;DHT22;24126;52.672;13.622;2022-12-29T18:55:13;14.00;72.00
38325;DHT22;24126;52.672;13.622;2022-12-29T18:57:41;14.00;71.90
38325;DHT22;24126;52.672;13.622;2022-12-29T19:00:10;13.90;71.60
38325;DHT22;24126;52.672;13.622;2022-12-29T19:02:37;13.90;71.70
38325;DHT22;24126;52.672;13.622;2022-12-29T19:05:28;13.90;71.60
38325;DHT22;24126;52.672;13.622;2022-12-29T19:10:24;13.80;71.60
38325;DHT22;24126;52.672;13.622;2022-12-29T19:12:51;13.80;71.50
38325;DHT22;24126;52.672;13.622;2022-12-29T19:15:21;13.70;71.70